首页
METAR-TAF:

METAR-TAF

机场 :

杜布罗夫尼克机场

杜布羅夫尼克, 克罗地亚

纬度: 42-34N, 经度: 018-16E, 海拔: 157米

当前天气观测

该预报发布于17分钟前的08:30 UTC
静风
温度 11°C
湿度 50%
气压 1014 hPa
能见度10公里或以上
1500米以下无云,无积雨云

METAR: LDDU 030830Z 00000KT CAVOK 11/01 Q1014 NOSIG

时间: 10:47 (08:47 UTC)

预报

该预报发布于3小时和22分钟前的05:25 UTC
预报有效从03日的 06点(UTC)到 04日的 06点(UTC)
风速6节,风向北转东北
能见度10公里或以上
1500米以下无云,无积雨云
几率 30% :
短暂存在
从 03日的 14点(UTC)到 03日的 18点(UTC)
风速7节,风向西
成为
从 04日的 04点(UTC)到 04日的 06点(UTC)
风速12节,风向北转东北

TAF: LDDU 030525Z 0306/0406 02006KT CAVOK TX12/0311Z TN06/0400Z PROB30 TEMPO 0314/0318 28007KT BECMG 0404/0406 02012KT

超过4000个机场的气象观测和天气预报(METAR&TAF报告)。

可查询的气象台以黄色和红色小点在地图上表示。

将鼠标移到小点上方,可查看气象台名称。

然后点击查看天气观测和预报。

如需切换地图:点击带黑十字的绿色按钮放大地图;点击带横线的绿色按钮缩小地图;或者点击绿色箭头查看邻近地区的地图。


METAR-TAF: